Terminal Aerodrome Forecast
Issued by NWS

Home | Current Version | Previous Version | Graphics & Text | Print | Product List | Glossary On
Versions: 1 2 3 4 5 6 7 8 9 10 11 12 13 14 15 16 17 18 19 20
000
FTUS43 KICT 062151 AAC
TAFHUT
TAF AMD
KHUT 062151Z 0622/0718 01012G22KT P6SM VCTS SCT015CB OVC060
      TEMPO 0622/0624 3SM +TSRA BKN035CB OVC060
     FM070000 35014G22KT P6SM VCTS OVC040CB
     FM070500 02014G20KT P6SM OVC035=

USA.gov is the U.S. government's official web portal to all federal, state and local government web resources and services.